Time;durP1;ratioP1;P1;durP2;ratioP2;P2;SDS_P1;SDS_P2;PMS_P1;PMS_P2;Temp;Humidity;BMP_temperature;BMP_pressure;BME280_temperature;BME280_humidity;BME280_pressure;Samples;Min_cycle;Max_cycle;Signal;HPM_P1;HPM_P2
2020/12/22 00:00:34;;;;;;;103.72;68.32;;;8.50;89.60;;;;;;5095672;28;20483;-56
2020/12/22 00:03:05;;;;;;;100.70;65.70;;;8.50;89.00;;;;;;5093490;28;20028;-52
2020/12/22 00:05:39;;;;;;;98.10;64.67;;;8.00;90.20;;;;;;5095684;28;20139;-53
2020/12/22 00:08:15;;;;;;;105.15;68.07;;;8.00;90.90;;;;;;5110247;28;20402;-51
2020/12/22 00:10:40;;;;;;;105.20;68.18;;;8.10;90.50;;;;;;5095464;28;20090;-55
2020/12/22 00:13:06;;;;;;;104.72;65.80;;;8.10;90.10;;;;;;5095307;28;20476;-51
2020/12/22 00:15:32;;;;;;;106.47;68.85;;;8.10;90.30;;;;;;5095207;28;20210;-55
2020/12/22 00:17:58;;;;;;;107.97;71.88;;;8.30;90.00;;;;;;5095225;28;20387;-53
2020/12/22 00:20:24;;;;;;;110.07;73.07;;;8.40;89.70;;;;;;5094980;28;20069;-54
2020/12/22 00:22:51;;;;;;;116.28;73.10;;;8.40;89.70;;;;;;5095098;28;20111;-50
2020/12/22 00:25:17;;;;;;;124.82;80.50;;;8.30;89.30;;;;;;5095003;28;20089;-53
2020/12/22 00:27:42;;;;;;;116.20;72.53;;;7.90;90.60;;;;;;5095075;28;20025;-56
2020/12/22 00:30:08;;;;;;;105.90;69.47;;;8.00;90.80;;;;;;5094797;28;20514;-54
2020/12/22 00:32:35;;;;;;;107.25;70.38;;;8.20;90.30;;;;;;5094809;28;20028;-52
2020/12/22 00:35:01;;;;;;;108.55;70.03;;;8.40;89.90;;;;;;5094893;28;20028;-56
2020/12/22 00:37:26;;;;;;;101.82;66.97;;;8.40;89.10;;;;;;5092953;28;20038;-54
2020/12/22 00:39:52;;;;;;;110.65;70.90;;;8.40;89.40;;;;;;5095162;28;20080;-54
2020/12/22 00:42:18;;;;;;;98.57;63.13;;;8.40;88.90;;;;;;5094688;28;20032;-56
2020/12/22 00:44:44;;;;;;;99.93;66.32;;;8.40;88.90;;;;;;5109570;28;20462;-53
2020/12/22 00:47:11;;;;;;;110.43;72.75;;;8.50;88.10;;;;;;5094112;28;20089;-54
2020/12/22 00:49:37;;;;;;;94.85;61.10;;;8.50;87.50;;;;;;5094436;28;20391;-52
2020/12/22 00:52:02;;;;;;;91.90;59.20;;;8.40;88.20;;;;;;5094504;28;20028;-53
2020/12/22 00:54:28;;;;;;;94.57;65.75;;;8.40;88.00;;;;;;5094474;28;20026;-53
2020/12/22 00:56:55;;;;;;;82.88;55.25;;;8.50;87.60;;;;;;5094374;28;20450;-51
2020/12/22 00:59:20;;;;;;;82.57;54.47;;;8.60;87.00;;;;;;5094285;28;20472;-54
2020/12/22 01:01:46;;;;;;;81.47;53.03;;;8.70;86.30;;;;;;5094714;28;20028;-52
2020/12/22 01:04:12;;;;;;;76.57;49.13;;;8.70;86.10;;;;;;5094155;28;20474;-52
2020/12/22 01:06:38;;;;;;;77.22;47.00;;;8.60;85.40;;;;;;5094161;28;20020;-54
2020/12/22 01:09:05;;;;;;;65.57;43.83;;;8.40;86.10;;;;;;5094137;28;20433;-54
2020/12/22 01:11:36;;;;;;;65.25;41.72;;;8.30;85.80;;;;;;5094170;28;20472;-56
2020/12/22 01:14:02;;;;;;;66.00;42.50;;;8.20;86.30;;;;;;5094259;28;20036;-48
2020/12/22 01:16:28;;;;;;;63.25;41.08;;;8.10;86.80;;;;;;5093926;28;20032;-54
2020/12/22 01:18:54;;;;;;;63.42;41.47;;;8.20;86.80;;;;;;5094166;28;20130;-55
2020/12/22 01:21:23;;;;;;;75.03;47.78;;;8.20;86.50;;;;;;5094008;28;20085;-51
2020/12/22 01:23:52;;;;;;;82.15;49.00;;;8.00;87.20;;;;;;5075264;28;20112;-50
2020/12/22 01:26:25;;;;;;;75.53;47.08;;;7.90;87.60;;;;;;5093920;28;20475;-54
2020/12/22 01:28:54;;;;;;;87.95;52.97;;;7.60;88.20;;;;;;5092814;28;20506;-49
2020/12/22 01:31:26;;;;;;;65.43;42.30;;;7.70;88.10;;;;;;5093789;28;20031;-54
2020/12/22 01:33:52;;;;;;;61.43;41.67;;;7.50;88.90;;;;;;5093886;28;20024;-52
2020/12/22 01:36:18;;;;;;;55.85;37.83;;;7.40;90.00;;;;;;5093876;28;20264;-49
2020/12/22 01:38:45;;;;;;;57.90;39.40;;;7.50;89.10;;;;;;5093741;28;20028;-57
2020/12/22 01:41:11;;;;;;;59.83;38.25;;;7.40;88.90;;;;;;5093640;28;20043;-54
2020/12/22 01:43:37;;;;;;;54.83;37.00;;;7.30;89.70;;;;;;5093751;28;20020;-55
2020/12/22 01:46:06;;;;;;;57.85;38.33;;;7.40;89.60;;;;;;5108774;28;20036;-51
2020/12/22 01:48:36;;;;;;;58.28;35.38;;;7.30;89.00;;;;;;5091238;28;20040;-52
2020/12/22 01:51:09;;;;;;;58.83;36.95;;;7.20;89.90;;;;;;5091497;28;20044;-51
2020/12/22 01:53:34;;;;;;;;;;;7.10;89.80;;;;;;5091851;28;20036;-49
2020/12/22 01:56:00;;;;;;;53.78;36.22;;;7.10;90.20;;;;;;5074303;28;19904;-54
2020/12/22 01:58:26;;;;;;;55.00;35.78;;;7.20;90.00;;;;;;5091114;28;20082;-51
2020/12/22 02:00:51;;;;;;;58.67;36.60;;;7.10;89.70;;;;;;5074491;28;20088;-53
2020/12/22 02:03:17;;;;;;;55.28;36.25;;;7.10;90.10;;;;;;5091638;28;20122;-50
2020/12/22 02:05:43;;;;;;;59.90;36.60;;;7.00;89.60;;;;;;5091314;28;20119;-53
2020/12/22 02:08:11;;;;;;;60.95;37.30;;;6.90;90.00;;;;;;5041005;28;20036;-54
2020/12/22 02:10:51;;;;;;;56.25;37.53;;;7.00;90.00;;;;;;5040912;28;20040;-50
2020/12/22 02:13:17;;;;;;;60.65;37.90;;;7.10;89.20;;;;;;5074227;28;20592;-53
2020/12/22 02:15:42;;;;;;;58.72;36.28;;;7.10;89.00;;;;;;5091094;28;20123;-52
2020/12/22 02:18:09;;;;;;;56.90;37.50;;;7.10;88.40;;;;;;5091381;28;20059;-50
2020/12/22 02:20:34;;;;;;;54.00;34.65;;;7.10;88.60;;;;;;5092952;28;20077;-51
2020/12/22 02:23:00;;;;;;;53.15;35.28;;;7.00;88.40;;;;;;5093397;28;20531;-52
2020/12/22 02:25:34;;;;;;;53.03;35.55;;;7.20;88.00;;;;;;5093426;28;20016;-56
2020/12/22 02:27:59;;;;;;;57.50;35.95;;;7.30;87.30;;;;;;5090752;28;20574;-55
2020/12/22 02:30:25;;;;;;;58.17;36.10;;;7.20;87.20;;;;;;5090965;28;20119;-51
2020/12/22 02:32:51;;;;;;;55.33;36.75;;;7.20;86.60;;;;;;5091037;28;20032;-54
2020/12/22 02:35:17;;;;;;;57.13;36.88;;;7.10;87.40;;;;;;5090981;28;20036;-52
2020/12/22 02:37:42;;;;;;;51.33;35.08;;;7.00;87.80;;;;;;5090896;28;20024;-55
2020/12/22 02:40:08;;;;;;;55.75;35.47;;;7.10;86.80;;;;;;5090947;28;20119;-54
2020/12/22 02:42:34;;;;;;;51.13;33.60;;;6.90;86.80;;;;;;5090910;28;20491;-52
2020/12/22 02:44:59;;;;;;;53.60;34.45;;;6.90;86.80;;;;;;5090880;28;20051;-54
2020/12/22 02:47:25;;;;;;;57.10;33.63;;;7.00;86.40;;;;;;5057305;28;20065;-55
2020/12/22 02:49:51;;;;;;;56.15;33.92;;;6.90;86.20;;;;;;5057257;28;20074;-51
2020/12/22 02:52:17;;;;;;;57.55;34.22;;;6.80;86.60;;;;;;5057629;28;20082;-52
2020/12/22 02:54:42;;;;;;;55.60;33.40;;;6.70;86.40;;;;;;5093142;28;20050;-49
2020/12/22 02:57:08;;;;;;;52.30;33.42;;;6.60;86.60;;;;;;5093307;28;20062;-55
2020/12/22 02:59:34;;;;;;;49.83;31.52;;;6.50;87.40;;;;;;5092794;28;20032;-54
2020/12/22 03:02:00;;;;;;;49.50;32.70;;;6.50;88.00;;;;;;5092756;28;20024;-53
2020/12/22 03:04:26;;;;;;;55.95;32.38;;;6.40;88.10;;;;;;5092833;28;20031;-57
2020/12/22 03:06:51;;;;;;;58.67;32.60;;;6.30;88.40;;;;;;5092881;28;20066;-51
2020/12/22 03:09:17;;;;;;;53.38;31.38;;;6.20;89.20;;;;;;5094440;28;20070;-52
2020/12/22 03:11:43;;;;;;;64.00;36.50;;;6.30;89.00;;;;;;5096397;28;20028;-54
2020/12/22 03:14:09;;;;;;;60.28;39.00;;;6.20;88.80;;;;;;5096408;28;20488;-52
2020/12/22 03:16:34;;;;;;;66.05;37.83;;;6.20;89.10;;;;;;5096471;28;20031;-53
2020/12/22 03:19:00;;;;;;;57.47;36.80;;;6.20;89.00;;;;;;5096149;28;20395;-54
2020/12/22 03:21:26;;;;;;;59.70;35.17;;;6.10;89.10;;;;;;5096363;28;20024;-53
2020/12/22 03:23:51;;;;;;;68.20;37.35;;;6.00;89.50;;;;;;5096116;28;20038;-53
2020/12/22 03:26:17;;;;;;;51.33;32.13;;;5.90;89.70;;;;;;5094377;28;20036;-51
2020/12/22 03:28:43;;;;;;;55.35;32.33;;;6.00;89.00;;;;;;5093993;28;20047;-52
2020/12/22 03:31:09;;;;;;;57.78;34.47;;;6.00;89.20;;;;;;5094331;28;20484;-53
2020/12/22 03:33:35;;;;;;;54.13;31.95;;;5.80;89.50;;;;;;5096103;28;20065;-52
2020/12/22 03:36:00;;;;;;;53.70;33.35;;;5.70;90.10;;;;;;5096306;28;20023;-51
2020/12/22 03:38:26;;;;;;;53.50;34.00;;;5.80;90.30;;;;;;5094083;28;20044;-52
2020/12/22 03:40:52;;;;;;;52.30;34.75;;;5.70;90.30;;;;;;5095935;28;20094;-54
2020/12/22 03:43:18;;;;;;;56.70;34.42;;;5.80;89.90;;;;;;5095919;28;20467;-57
2020/12/22 03:45:45;;;;;;;51.25;33.08;;;5.70;90.20;;;;;;5094077;28;20039;-54
2020/12/22 03:48:11;;;;;;;52.35;33.10;;;5.80;90.00;;;;;;5095803;28;20433;-52
2020/12/22 03:50:36;;;;;;;59.30;33.65;;;5.80;89.80;;;;;;5095686;28;20032;-49
2020/12/22 03:53:03;;;;;;;57.08;34.13;;;5.90;89.50;;;;;;5095635;28;20024;-54
2020/12/22 03:55:28;;;;;;;55.40;34.75;;;5.90;89.70;;;;;;5095637;28;20024;-52
2020/12/22 03:57:56;;;;;;;56.03;34.88;;;5.90;89.80;;;;;;5095493;28;20400;-54
2020/12/22 04:00:22;;;;;;;51.88;33.00;;;5.90;89.50;;;;;;5095413;28;20053;-51
2020/12/22 04:02:48;;;;;;;53.92;33.47;;;5.80;89.60;;;;;;5095472;28;20077;-55
2020/12/22 04:05:13;;;;;;;51.42;32.55;;;5.90;89.40;;;;;;5095379;28;20031;-53
2020/12/22 04:07:39;;;;;;;50.80;32.50;;;5.80;89.30;;;;;;5095491;28;20031;-53
2020/12/22 04:10:06;;;;;;;57.70;32.17;;;5.80;90.00;;;;;;5093305;28;20051;-51
2020/12/22 04:12:33;;;;;;;55.13;31.30;;;5.80;89.30;;;;;;5110575;28;20059;-52
2020/12/22 04:14:59;;;;;;;52.80;33.35;;;5.80;89.70;;;;;;5095228;28;20434;-50
2020/12/22 04:17:25;;;;;;;54.70;32.17;;;5.80;89.60;;;;;;5095248;28;20468;-55
2020/12/22 04:19:52;;;;;;;52.33;32.33;;;6.00;88.90;;;;;;5095046;28;20032;-51
2020/12/22 04:22:17;;;;;;;55.85;33.42;;;6.10;88.20;;;;;;5110140;28;20056;-51
2020/12/22 04:24:43;;;;;;;58.33;35.55;;;6.20;87.40;;;;;;5095197;28;20506;-53
2020/12/22 04:27:09;;;;;;;64.68;37.58;;;6.10;87.40;;;;;;5095105;28;20476;-51
2020/12/22 04:29:35;;;;;;;87.50;49.65;;;6.30;87.10;;;;;;5094748;28;20377;-56
2020/12/22 04:32:00;;;;;;;71.88;38.67;;;6.30;87.00;;;;;;5095089;28;20418;-48
2020/12/22 04:34:26;;;;;;;55.25;34.33;;;6.20;86.50;;;;;;5094989;28;20103;-53
2020/12/22 04:36:53;;;;;;;58.70;33.47;;;6.40;86.20;;;;;;5094957;28;20028;-50
2020/12/22 04:39:25;;;;;;;50.72;31.75;;;6.40;85.70;;;;;;5094768;28;20028;-52
2020/12/22 04:41:51;;;;;;;56.63;31.70;;;6.40;85.30;;;;;;5093990;28;20032;-54
2020/12/22 04:44:18;;;;;;;51.70;32.20;;;6.40;85.20;;;;;;5092834;28;20032;-54
2020/12/22 04:46:50;;;;;;;57.60;33.35;;;6.50;84.90;;;;;;5094561;28;20432;-51
2020/12/22 04:49:20;;;;;;;49.33;30.63;;;6.50;85.20;;;;;;5092589;28;20480;-56
2020/12/22 04:51:48;;;;;;;51.50;29.73;;;6.50;85.10;;;;;;5094618;28;20107;-54
2020/12/22 04:54:17;;;;;;;50.83;30.00;;;6.30;85.30;;;;;;5094200;28;20032;-53
2020/12/22 04:56:45;;;;;;;51.38;31.05;;;6.20;85.60;;;;;;5094498;28;20032;-53
2020/12/22 04:59:12;;;;;;;47.72;30.58;;;6.00;86.40;;;;;;5094229;28;20020;-53
2020/12/22 05:01:37;;;;;;;51.38;30.80;;;6.00;86.90;;;;;;5094256;28;20028;-50
2020/12/22 05:04:03;;;;;;;52.40;31.80;;;6.00;87.00;;;;;;5058781;28;20028;-51
2020/12/22 05:06:29;;;;;;;56.17;31.40;;;6.00;86.40;;;;;;5093844;28;20526;-55
2020/12/22 05:08:55;;;;;;;56.17;33.30;;;5.80;87.60;;;;;;5094123;28;20028;-50
2020/12/22 05:11:20;;;;;;;53.65;33.75;;;5.90;88.00;;;;;;5093608;28;20040;-55
2020/12/22 05:13:51;;;;;;;82.05;34.00;;;6.00;87.30;;;;;;5094088;28;20028;-54
2020/12/22 05:16:25;;;;;;;55.20;31.02;;;6.00;87.00;;;;;;5093458;28;20024;-55
2020/12/22 05:18:53;;;;;;;49.55;30.88;;;6.00;87.30;;;;;;5093939;28;20020;-51
2020/12/22 05:21:19;;;;;;;53.15;30.48;;;6.10;87.20;;;;;;5093980;28;20076;-56
2020/12/22 05:23:50;;;;;;;58.15;31.90;;;6.20;86.40;;;;;;5093385;28;20062;-56
2020/12/22 05:26:23;;;;;;;54.38;33.92;;;6.30;86.70;;;;;;5091356;28;20032;-55
2020/12/22 05:28:49;;;;;;;58.40;36.17;;;6.40;85.70;;;;;;5093845;28;20391;-54
2020/12/22 05:31:16;;;;;;;57.47;36.05;;;6.30;86.20;;;;;;5074628;28;20502;-56
2020/12/22 05:33:44;;;;;;;55.83;35.03;;;6.40;86.00;;;;;;5093975;28;20107;-49
2020/12/22 05:36:10;;;;;;;53.35;32.08;;;6.50;85.90;;;;;;5093617;28;20368;-52
2020/12/22 05:38:37;;;;;;;54.10;30.33;;;6.50;85.50;;;;;;5093835;28;20039;-52
2020/12/22 05:41:06;;;;;;;50.60;29.40;;;6.50;84.70;;;;;;5108891;28;20046;-50
2020/12/22 05:43:42;;;;;;;53.33;31.55;;;6.30;85.20;;;;;;5093621;28;20036;-52
2020/12/22 05:46:11;;;;;;;50.70;30.70;;;6.20;85.30;;;;;;5093783;28;20040;-49
2020/12/22 05:48:37;;;;;;;49.15;31.58;;;6.40;85.00;;;;;;5092965;28;20051;-52
2020/12/22 05:51:06;;;;;;;45.85;30.83;;;6.40;84.80;;;;;;5093601;28;20032;-50
2020/12/22 05:53:32;;;;;;;53.95;31.17;;;6.40;85.00;;;;;;5093577;28;20035;-53
2020/12/22 05:56:17;;;;;;;46.92;30.67;;;6.50;84.70;;;;;;5093557;28;20070;-51
2020/12/22 05:58:43;;;;;;;48.75;30.27;;;6.50;84.10;;;;;;5088335;28;20028;-51
2020/12/22 06:01:12;;;;;;;48.20;30.60;;;6.60;84.00;;;;;;5091140;28;20384;-56
2020/12/22 06:03:38;;;;;;;49.72;30.35;;;6.60;84.30;;;;;;5092865;28;20028;-49
2020/12/22 06:06:07;;;;;;;44.42;29.88;;;6.70;84.20;;;;;;5092532;28;20103;-53
2020/12/22 06:08:33;;;;;;;44.03;28.83;;;6.70;84.00;;;;;;5089578;28;20032;-56
2020/12/22 06:11:01;;;;;;;45.00;28.58;;;6.80;83.90;;;;;;5092770;28;20498;-52
2020/12/22 06:13:28;;;;;;;45.40;28.58;;;6.70;84.00;;;;;;5091473;28;20035;-52
2020/12/22 06:15:54;;;;;;;53.03;31.95;;;6.50;84.20;;;;;;5083942;28;20111;-57
2020/12/22 06:18:21;;;;;;;49.38;32.97;;;6.20;86.00;;;;;;5073364;28;20060;-66
2020/12/22 06:20:47;;;;;;;62.28;35.33;;;6.30;86.60;;;;;;5081011;28;20036;-57
2020/12/22 06:23:18;;;;;;;61.95;38.17;;;6.50;85.00;;;;;;5073242;28;20033;-50
2020/12/22 06:25:43;;;;;;;64.65;40.70;;;6.50;85.40;;;;;;5083999;28;20089;-48
2020/12/22 06:28:28;;;;;;;65.20;38.70;;;6.10;85.80;;;;;;5092121;28;20040;-55
2020/12/22 06:30:55;;;;;;;55.90;35.65;;;5.80;87.80;;;;;;5108469;28;20105;-56
2020/12/22 06:33:27;;;;;;;60.83;37.13;;;6.00;87.50;;;;;;5079877;28;20395;-60
2020/12/22 06:36:08;;;;;;;60.40;35.78;;;5.90;87.80;;;;;;5072863;28;20032;-53
2020/12/22 06:38:55;;;;;;;59.40;37.05;;;5.70;88.80;;;;;;5090299;28;20079;-51
2020/12/22 06:41:33;;;;;;;68.68;39.70;;;5.60;90.70;;;;;;5091903;28;20040;-52
2020/12/22 06:44:21;;;;;;;98.47;66.15;;;5.70;89.90;;;;;;5093599;28;20035;-58
2020/12/22 06:46:53;;;;;;;70.07;38.22;;;6.10;88.10;;;;;;5110091;28;20055;-54
2020/12/22 06:49:42;;;;;;;60.25;37.95;;;6.10;87.00;;;;;;5096659;28;20047;-52
2020/12/22 06:52:36;;;;;;;56.25;37.28;;;6.10;87.00;;;;;;5096959;28;20032;-52
2020/12/22 06:55:07;;;;;;;53.35;35.63;;;6.30;86.10;;;;;;5096983;28;20032;-58
2020/12/22 06:57:47;;;;;;;50.20;32.80;;;6.40;85.50;;;;;;5112025;28;20484;-56
2020/12/22 07:00:28;;;;;;;51.95;31.90;;;6.40;85.00;;;;;;5097011;28;20036;-57
2020/12/22 07:03:10;;;;;;;53.53;34.13;;;6.60;85.10;;;;;;5088011;28;20565;-50
2020/12/22 07:05:47;;;;;;;43.85;31.08;;;6.60;84.80;;;;;;5091261;28;20044;-55
2020/12/22 07:08:14;;;;;;;55.10;33.63;;;6.40;85.00;;;;;;5075118;28;20123;-56
2020/12/22 07:10:43;;;;;;;50.05;32.55;;;6.40;85.70;;;;;;5076513;28;20093;-51
2020/12/22 07:13:11;;;;;;;49.95;31.33;;;6.40;85.40;;;;;;5076275;28;20074;-52
2020/12/22 07:15:46;;;;;;;50.97;33.58;;;6.60;85.90;;;;;;5076548;28;20599;-50
2020/12/22 07:18:29;;;;;;;53.25;34.10;;;6.70;84.90;;;;;;5076224;28;20036;-56
2020/12/22 07:20:56;;;;;;;58.10;36.80;;;6.80;85.10;;;;;;5076127;28;20032;-57
2020/12/22 07:23:22;;;;;;;69.95;45.42;;;6.40;84.20;;;;;;5076257;28;20036;-60
2020/12/22 07:25:48;;;;;;;66.70;45.95;;;6.00;86.30;;;;;;5089254;28;20054;-51
2020/12/22 07:28:14;;;;;;;70.25;46.88;;;5.80;88.00;;;;;;5095969;28;20081;-55
2020/12/22 07:30:40;;;;;;;66.72;44.50;;;5.40;89.70;;;;;;5111404;28;20052;-51
2020/12/22 07:33:06;;;;;;;63.50;43.55;;;5.40;90.20;;;;;;5114532;28;20035;-54
2020/12/22 07:35:33;;;;;;;62.33;42.28;;;5.90;89.30;;;;;;5114474;28;20135;-49
2020/12/22 07:38:09;;;;;;;61.17;44.15;;;6.10;87.60;;;;;;5096375;28;20036;-52
2020/12/22 07:40:39;;;;;;;69.25;45.40;;;5.80;88.80;;;;;;5095705;28;20047;-54
2020/12/22 07:43:12;;;;;;;60.05;44.05;;;5.90;88.70;;;;;;5112633;28;20073;-55
2020/12/22 07:45:50;;;;;;;58.90;45.13;;;6.30;89.00;;;;;;5112862;28;20028;-54
2020/12/22 07:48:17;;;;;;;77.82;46.58;;;6.70;87.50;;;;;;5112641;28;20067;-55
2020/12/22 07:51:03;;;;;;;75.80;46.03;;;7.00;85.70;;;;;;5112735;28;20116;-58
2020/12/22 07:53:29;;;;;;;69.05;44.42;;;7.20;84.80;;;;;;5051679;28;20056;-51
2020/12/22 07:56:04;;;;;;;64.60;42.22;;;7.30;83.60;;;;;;5051420;28;20033;-59
2020/12/22 07:58:32;;;;;;;66.53;44.25;;;7.20;84.30;;;;;;5051841;28;20175;-56
2020/12/22 08:01:01;;;;;;;71.25;46.83;;;7.40;82.80;;;;;;5051750;28;20033;-55
2020/12/22 08:03:29;;;;;;;67.20;45.42;;;7.60;82.30;;;;;;5051738;28;20065;-53
2020/12/22 08:06:01;;;;;;;70.90;46.45;;;7.70;81.70;;;;;;5051594;28;20524;-56
2020/12/22 08:08:28;;;;;;;71.90;45.95;;;7.80;81.00;;;;;;5034980;28;20044;-54
2020/12/22 08:10:54;;;;;;;72.00;48.10;;;7.80;80.60;;;;;;5031752;28;20103;-57
2020/12/22 08:13:25;;;;;;;56.50;40.13;;;7.90;80.10;;;;;;5031825;28;20145;-57
2020/12/22 08:15:51;;;;;;;55.35;38.78;;;7.80;80.20;;;;;;5031813;28;20497;-51
2020/12/22 08:18:18;;;;;;;55.53;37.83;;;7.90;80.90;;;;;;5031158;28;20041;-58
2020/12/22 08:20:43;;;;;;;55.63;37.00;;;7.90;81.10;;;;;;5031660;28;20528;-49
2020/12/22 08:23:09;;;;;;;55.95;38.20;;;8.20;80.50;;;;;;5031558;28;20044;-50
2020/12/22 08:25:35;;;;;;;48.38;36.25;;;8.40;79.40;;;;;;5031459;28;20076;-51
2020/12/22 08:28:01;;;;;;;52.53;34.85;;;9.70;81.00;;;;;;5038881;28;20065;-54
2020/12/22 08:30:27;;;;;;;47.35;34.90;;;;;;;;;;5044314;28;20049;-55
2020/12/22 08:32:54;;;;;;;44.42;33.90;;;13.40;68.70;;;;;;5084183;28;20491;-52
2020/12/22 08:35:21;;;;;;;44.05;32.17;;;15.10;84.60;;;;;;5092777;28;20066;-57
2020/12/22 08:37:47;;;;;;;53.53;39.25;;;;;;;;;;5057725;28;20487;-53
2020/12/22 08:40:26;;;;;;;47.95;36.13;;;;;;;;;;5108186;28;20123;-56
2020/12/22 08:42:52;;;;;;;40.40;31.00;;;17.70;52.50;;;;;;5093775;28;20032;-55
2020/12/22 08:45:18;;;;;;;41.88;31.25;;;;;;;;;;5093398;28;20040;-54
2020/12/22 08:47:53;;;;;;;42.75;31.95;;;19.20;48.20;;;;;;5093658;28;20028;-52
2020/12/22 08:50:19;;;;;;;42.42;31.95;;;19.50;45.90;;;;;;5074362;28;20047;-51
2020/12/22 08:52:45;;;;;;;42.65;33.25;;;19.60;46.60;;;;;;5092500;28;20078;-51
2020/12/22 08:55:12;;;;;;;40.78;31.85;;;19.70;46.20;;;;;;5108168;28;20071;-50
2020/12/22 08:57:38;;;;;;;40.70;32.50;;;20.20;44.20;;;;;;5093062;28;20467;-55
2020/12/22 09:00:15;;;;;;;44.53;33.95;;;20.10;43.20;;;;;;5093200;28;20529;-54
2020/12/22 09:02:49;;;;;;;38.13;31.40;;;19.30;45.00;;;;;;5090727;28;20032;-53
2020/12/22 09:05:15;;;;;;;40.60;33.25;;;20.10;44.00;;;;;;5090752;28;20070;-54
2020/12/22 09:07:42;;;;;;;45.15;34.38;;;20.50;42.80;;;;;;5090052;28;20503;-55
2020/12/22 09:10:09;;;;;;;44.75;38.88;;;21.10;41.60;;;;;;5090475;28;20035;-54
2020/12/22 09:12:35;;;;;;;45.63;37.88;;;21.30;41.20;;;;;;5088128;28;20036;-50
2020/12/22 09:15:03;;;;;;;42.65;35.47;;;21.00;40.40;;;;;;5090737;28;20050;-50
2020/12/22 09:17:30;;;;;;;42.60;35.38;;;21.10;39.70;;;;;;5087971;28;20094;-49
2020/12/22 09:19:56;;;;;;;41.00;36.58;;;21.40;39.80;;;;;;5056828;28;20073;-54
2020/12/22 09:22:24;;;;;;;42.67;38.10;;;21.70;39.50;;;;;;5090393;28;20119;-51
2020/12/22 09:24:56;;;;;;;43.05;37.83;;;21.50;40.10;;;;;;5090431;28;20047;-53
2020/12/22 09:27:30;;;;;;;50.22;41.28;;;21.90;39.50;;;;;;5090408;28;20036;-55
2020/12/22 09:29:56;;;;;;;47.17;40.60;;;21.80;39.20;;;;;;5090088;28;20499;-51
2020/12/22 09:32:22;;;;;;;44.50;39.90;;;22.00;39.00;;;;;;5090260;28;20123;-49
2020/12/22 09:34:48;;;;;;;49.53;43.55;;;21.90;38.80;;;;;;5092530;28;20131;-50
2020/12/22 09:37:14;;;;;;;48.83;43.25;;;22.10;38.70;;;;;;5092399;28;20032;-54
2020/12/22 09:39:40;;;;;;;45.05;40.42;;;22.20;38.00;;;;;;5092756;28;20482;-53
2020/12/22 09:42:07;;;;;;;46.33;41.72;;;22.10;38.10;;;;;;5090227;28;20372;-50
2020/12/22 09:44:34;;;;;;;43.90;39.17;;;21.90;38.00;;;;;;5072365;28;20089;-53
2020/12/22 09:47:00;;;;;;;46.22;40.13;;;21.80;38.40;;;;;;5072386;28;20031;-57
2020/12/22 09:49:27;;;;;;;46.83;41.85;;;21.40;38.60;;;;;;5071852;28;20377;-53
2020/12/22 09:51:53;;;;;;;49.53;44.33;;;21.30;39.20;;;;;;5072336;28;20033;-55
2020/12/22 09:54:20;;;;;;;47.30;42.60;;;21.40;39.40;;;;;;5072074;28;20032;-52
2020/12/22 09:56:46;;;;;;;56.80;48.33;;;21.40;39.50;;;;;;5072062;28;20024;-50
2020/12/22 09:59:12;;;;;;;56.92;50.75;;;21.40;39.00;;;;;;5086948;28;20131;-48
2020/12/22 10:01:38;;;;;;;55.72;48.05;;;20.60;39.20;;;;;;5086832;28;20120;-53
2020/12/22 10:04:04;;;;;;;59.28;49.63;;;19.80;42.00;;;;;;5084853;28;20128;-46
2020/12/22 10:06:30;;;;;;;58.65;48.30;;;20.60;41.70;;;;;;5071510;28;20137;-52
2020/12/22 10:08:56;;;;;;;60.45;49.95;;;20.80;41.00;;;;;;5088201;28;20036;-53
2020/12/22 10:11:22;;;;;;;61.35;52.25;;;20.90;40.90;;;;;;5091698;28;20097;-49
2020/12/22 10:13:49;;;;;;;53.28;46.35;;;21.00;40.40;;;;;;5092072;28;20032;-55
2020/12/22 10:16:17;;;;;;;63.35;49.15;;;20.90;40.30;;;;;;5091977;28;20475;-59
2020/12/22 10:18:43;;;;;;;56.30;46.00;;;21.00;40.00;;;;;;5094655;28;20055;-50
2020/12/22 10:21:11;;;;;;;71.57;53.20;;;21.10;40.50;;;;;;5096427;28;20036;-50
2020/12/22 10:23:38;;;;;;;74.90;56.25;;;21.20;40.30;;;;;;5060071;28;20735;-49
2020/12/22 10:26:05;;;;;;;61.30;48.85;;;20.90;40.50;;;;;;5096134;28;20051;-49
2020/12/22 10:28:32;;;;;;;63.70;49.10;;;20.40;41.00;;;;;;5095734;28;20123;-55
2020/12/22 10:30:59;;;;;;;56.88;48.00;;;20.10;42.10;;;;;;5059681;28;20055;-51
2020/12/22 10:33:25;;;;;;;57.85;49.97;;;20.10;41.60;;;;;;5076473;28;20043;-52
2020/12/22 10:35:51;;;;;;;78.53;62.47;;;20.20;41.90;;;;;;5093479;28;20357;-49
2020/12/22 10:38:17;;;;;;;70.00;55.10;;;20.20;41.50;;;;;;5093076;28;20036;-51
2020/12/22 10:40:43;;;;;;;66.70;56.38;;;20.20;42.70;;;;;;5059423;28;20112;-50
2020/12/22 10:43:09;;;;;;;65.40;50.22;;;20.50;42.50;;;;;;5093102;28;20027;-56
2020/12/22 10:45:35;;;;;;;59.67;51.90;;;20.60;41.60;;;;;;5093078;28;20048;-53
2020/12/22 10:48:01;;;;;;;60.17;51.17;;;20.50;42.10;;;;;;5093148;28;20024;-53
2020/12/22 10:50:27;;;;;;;58.33;50.85;;;20.90;41.80;;;;;;5092211;28;20404;-51
2020/12/22 10:52:54;;;;;;;67.93;56.83;;;20.80;41.60;;;;;;5051952;28;20068;-55
2020/12/22 10:55:20;;;;;;;77.05;59.90;;;20.50;43.50;;;;;;5052039;28;20052;-51
2020/12/22 10:57:46;;;;;;;59.47;53.15;;;20.70;43.80;;;;;;5035463;28;20127;-52
2020/12/22 11:00:12;;;;;;;59.33;52.88;;;20.90;41.90;;;;;;5027206;28;20126;-54
2020/12/22 11:02:39;;;;;;;65.32;54.05;;;20.80;42.40;;;;;;5067768;28;20040;-56
2020/12/22 11:05:06;;;;;;;58.78;51.28;;;20.50;42.40;;;;;;5056097;28;20392;-51
2020/12/22 11:07:38;;;;;;;66.63;52.75;;;20.40;43.40;;;;;;5055628;28;20063;-50
2020/12/22 11:10:03;;;;;;;;;;;20.70;43.20;;;;;;5072754;28;20048;-53
2020/12/22 11:12:29;;;;;;;62.17;54.00;;;20.60;42.00;;;;;;5072517;28;20003;-53
2020/12/22 11:14:55;;;;;;;68.47;54.08;;;20.50;42.40;;;;;;5055442;28;20040;-51
2020/12/22 11:17:20;;;;;;;60.50;52.95;;;20.30;42.60;;;;;;5072286;28;20060;-54
2020/12/22 11:19:46;;;;;;;61.08;54.22;;;19.90;43.20;;;;;;5072553;28;20071;-48
2020/12/22 11:22:12;;;;;;;63.20;52.42;;;20.10;43.10;;;;;;5038470;28;20040;-48
2020/12/22 11:24:38;;;;;;;66.32;54.65;;;19.80;43.20;;;;;;5090388;28;20074;-52
2020/12/22 11:27:04;;;;;;;62.50;52.65;;;20.20;43.40;;;;;;5094964;28;20046;-52
2020/12/22 11:29:29;;;;;;;62.20;55.17;;;19.60;43.20;;;;;;5092634;28;20135;-52
2020/12/22 11:31:55;;;;;;;63.17;54.22;;;19.70;43.60;;;;;;5094904;28;20039;-54
2020/12/22 11:34:21;;;;;;;66.22;53.83;;;19.80;44.00;;;;;;5094721;28;20519;-50
2020/12/22 11:36:49;;;;;;;71.28;54.72;;;20.00;43.20;;;;;;5109688;28;20048;-52
2020/12/22 11:39:14;;;;;;;66.38;51.50;;;19.90;43.60;;;;;;5094744;28;20096;-53
2020/12/22 11:41:40;;;;;;;94.82;66.82;;;19.90;43.40;;;;;;5109560;28;20612;-52
2020/12/22 11:44:06;;;;;;;66.78;54.60;;;19.40;44.50;;;;;;5094547;28;20161;-54
2020/12/22 11:46:31;;;;;;;71.20;54.10;;;18.80;45.50;;;;;;5094474;28;20082;-50
2020/12/22 11:48:57;;;;;;;77.53;57.83;;;17.80;47.80;;;;;;5094297;28;20150;-54
2020/12/22 11:51:23;;;;;;;69.57;53.30;;;17.50;49.20;;;;;;5094039;28;20494;-51
2020/12/22 11:53:49;;;;;;;69.88;52.88;;;17.10;50.00;;;;;;5094384;28;20059;-48
2020/12/22 11:56:14;;;;;;;69.45;53.60;;;17.10;49.50;;;;;;5094383;28;20038;-50
2020/12/22 11:58:40;;;;;;;71.60;56.50;;;;;;;;;;5094477;28;20032;-53
2020/12/22 12:01:07;;;;;;;77.50;57.58;;;;;;;;;;5094147;28;20535;-49
2020/12/22 12:03:32;;;;;;;73.18;55.33;;;16.10;52.70;;;;;;5092110;28;20055;-50
2020/12/22 12:05:58;;;;;;;70.57;55.70;;;15.80;53.80;;;;;;5024742;28;20035;-50
2020/12/22 12:08:24;;;;;;;77.55;54.78;;;15.80;54.20;;;;;;5109130;28;20119;-54
2020/12/22 12:10:50;;;;;;;77.50;58.90;;;15.90;54.40;;;;;;5094102;28;20525;-48
2020/12/22 12:13:15;;;;;;;75.32;55.67;;;15.50;55.50;;;;;;5093934;28;20060;-50
2020/12/22 12:15:41;;;;;;;81.72;54.83;;;15.70;55.50;;;;;;5093946;28;20278;-48
2020/12/22 12:18:07;;;;;;;73.43;56.65;;;15.90;55.40;;;;;;5091772;28;20047;-49
2020/12/22 12:20:33;;;;;;;72.80;51.85;;;15.60;55.60;;;;;;5094030;28;20031;-47
2020/12/22 12:22:58;;;;;;;74.60;55.00;;;15.60;55.10;;;;;;5093979;28;20034;-47
2020/12/22 12:25:24;;;;;;;71.65;52.80;;;15.40;69.40;;;;;;5108262;28;20124;-49
2020/12/22 12:27:50;;;;;;;75.68;53.72;;;15.10;67.50;;;;;;5092427;28;20487;-50
2020/12/22 12:30:16;;;;;;;84.85;58.88;;;15.10;67.80;;;;;;5093721;28;20609;-50
2020/12/22 12:32:42;;;;;;;76.93;55.08;;;15.00;58.00;;;;;;5093738;28;20035;-49
2020/12/22 12:35:08;;;;;;;67.88;50.55;;;14.90;59.20;;;;;;5093694;28;20107;-49
2020/12/22 12:37:34;;;;;;;70.35;51.75;;;14.70;60.10;;;;;;5093565;28;20066;-49